createdAt,value
2022-12-31T00:55:04.616Z,0.50
2022-12-31T00:56:04.501Z,0.50
2022-12-31T00:57:04.481Z,0.50
2022-12-31T00:58:04.365Z,0.50
2022-12-31T00:59:04.297Z,0.50
2022-12-31T01:00:04.376Z,0.40
2022-12-31T01:01:04.387Z,0.34
2022-12-31T01:02:12.984Z,0.34
2022-12-31T01:03:04.147Z,0.34
2022-12-31T01:04:03.896Z,0.34
2022-12-31T01:05:03.799Z,0.34
2022-12-31T01:06:03.734Z,0.34
2022-12-31T01:07:03.608Z,0.34
2022-12-31T01:08:03.553Z,0.34
2022-12-31T01:09:03.456Z,0.34
2022-12-31T01:10:03.341Z,0.34
2022-12-31T01:11:03.243Z,0.34
2022-12-31T01:12:03.172Z,0.34
2022-12-31T01:13:03.052Z,0.34
2022-12-31T01:14:02.986Z,0.34
2022-12-31T01:15:02.893Z,0.39
2022-12-31T01:16:02.862Z,0.46
2022-12-31T01:17:02.696Z,0.50
2022-12-31T01:18:02.671Z,0.50
2022-12-31T01:19:02.513Z,0.50
2022-12-31T01:20:02.454Z,0.50
2022-12-31T01:21:02.335Z,0.51
2022-12-31T01:22:02.286Z,0.50
2022-12-31T01:23:02.142Z,0.51
2022-12-31T01:24:02.092Z,0.51
2022-12-31T01:25:01.992Z,0.51
2022-12-31T01:26:01.884Z,0.51
2022-12-31T01:27:01.781Z,0.50
2022-12-31T01:28:01.713Z,0.50
2022-12-31T01:29:01.640Z,0.51
2022-12-31T01:30:01.513Z,0.50
2022-12-31T01:31:01.453Z,0.50
2022-12-31T01:32:01.357Z,0.50
2022-12-31T01:33:01.231Z,0.50
2022-12-31T01:34:01.179Z,0.50
2022-12-31T01:35:01.067Z,0.51
2022-12-31T01:36:01.265Z,0.51
2022-12-31T01:37:00.898Z,0.51
2022-12-31T01:38:00.847Z,0.51
2022-12-31T01:39:00.752Z,0.50
2022-12-31T01:40:00.653Z,0.51
2022-12-31T01:41:00.534Z,0.50
2022-12-31T01:42:00.494Z,0.51
2022-12-31T01:43:00.355Z,0.51
2022-12-31T01:44:00.299Z,0.50
2022-12-31T01:45:00.228Z,0.50
2022-12-31T01:46:00.198Z,0.51
2022-12-31T01:47:00.040Z,0.51
2022-12-31T01:47:59.931Z,0.50
2022-12-31T01:48:59.820Z,0.51
2022-12-31T01:49:59.757Z,0.52
2022-12-31T01:50:59.643Z,0.51
2022-12-31T01:51:59.538Z,0.51
2022-12-31T01:52:59.460Z,0.51
2022-12-31T01:53:59.388Z,0.51
2022-12-31T01:54:59.279Z,0.51
2022-12-31T01:55:59.211Z,0.51
2022-12-31T01:56:59.093Z,0.51
2022-12-31T01:57:59.027Z,0.51
2022-12-31T01:58:58.922Z,0.51
2022-12-31T01:59:58.812Z,0.51
2022-12-31T02:00:58.754Z,0.52
2022-12-31T02:01:58.948Z,0.51
2022-12-31T02:02:58.624Z,0.51
2022-12-31T02:03:58.476Z,0.51
2022-12-31T02:04:58.372Z,0.52
2022-12-31T02:05:58.279Z,0.50
2022-12-31T02:06:58.157Z,0.51
2022-12-31T02:07:58.088Z,0.51
2022-12-31T02:08:57.986Z,0.51
2022-12-31T02:09:57.892Z,0.51
2022-12-31T02:10:57.794Z,0.51
2022-12-31T02:11:57.707Z,0.50
2022-12-31T02:12:57.624Z,0.51
2022-12-31T02:13:58.755Z,0.51
2022-12-31T02:14:57.435Z,0.52
2022-12-31T02:15:57.384Z,0.51
2022-12-31T02:16:57.231Z,0.50
2022-12-31T02:17:57.152Z,0.51
2022-12-31T02:18:57.042Z,0.51
2022-12-31T02:19:57.009Z,0.51
2022-12-31T02:20:56.900Z,0.52
2022-12-31T02:21:56.801Z,0.52
2022-12-31T02:22:56.699Z,0.52
2022-12-31T02:23:56.629Z,0.50
2022-12-31T02:24:56.521Z,0.51
2022-12-31T02:25:56.420Z,0.50
2022-12-31T02:26:56.341Z,0.51
2022-12-31T02:27:56.267Z,0.51
2022-12-31T02:28:56.161Z,0.51
2022-12-31T02:29:56.092Z,0.52
2022-12-31T02:30:56.005Z,0.51
2022-12-31T02:31:55.901Z,0.51
2022-12-31T02:32:55.796Z,0.51
2022-12-31T02:33:55.724Z,0.51
2022-12-31T02:34:55.624Z,0.51
2022-12-31T02:35:55.532Z,0.51
2022-12-31T02:36:55.426Z,0.51
2022-12-31T02:37:55.389Z,0.51
2022-12-31T02:38:55.275Z,0.50
2022-12-31T02:39:55.184Z,0.52
2022-12-31T02:40:55.067Z,0.52
2022-12-31T02:41:55.019Z,0.51
2022-12-31T02:42:55.696Z,0.51
2022-12-31T02:43:54.831Z,0.51
2022-12-31T02:44:54.716Z,0.52
2022-12-31T02:45:54.677Z,0.53
2022-12-31T02:46:54.602Z,0.52
2022-12-31T02:47:54.463Z,0.51
2022-12-31T02:48:54.376Z,0.51
2022-12-31T02:49:54.300Z,0.51
2022-12-31T02:50:54.228Z,0.51
2022-12-31T02:51:54.145Z,0.51
2022-12-31T02:52:54.022Z,0.51
2022-12-31T02:53:53.950Z,0.51
2022-12-31T02:54:53.867Z,0.51
2022-12-31T02:55:53.770Z,0.52
2022-12-31T02:56:53.687Z,0.51
2022-12-31T02:57:53.627Z,0.51
2022-12-31T02:58:53.531Z,0.51
2022-12-31T02:59:53.451Z,0.52
2022-12-31T03:00:53.407Z,0.52
2022-12-31T03:01:53.340Z,0.52
2022-12-31T03:02:53.227Z,0.52
2022-12-31T03:03:53.100Z,0.51
2022-12-31T03:04:52.993Z,0.51
2022-12-31T03:05:52.939Z,0.53
2022-12-31T03:06:52.833Z,0.52
2022-12-31T03:07:52.734Z,0.52
2022-12-31T03:08:52.615Z,0.51
2022-12-31T03:09:52.590Z,0.52
2022-12-31T03:10:52.460Z,0.52
2022-12-31T03:11:52.391Z,0.52
2022-12-31T03:12:52.296Z,0.53
2022-12-31T03:13:52.265Z,0.51
2022-12-31T03:14:52.145Z,0.52
2022-12-31T03:15:52.147Z,0.51
2022-12-31T03:16:51.954Z,0.52
2022-12-31T03:17:51.899Z,0.52
2022-12-31T03:18:51.773Z,0.52
2022-12-31T03:19:51.722Z,0.51
2022-12-31T03:20:51.624Z,0.52
2022-12-31T03:21:51.566Z,0.52
2022-12-31T03:22:51.437Z,0.52
2022-12-31T03:23:51.397Z,0.51
2022-12-31T03:24:51.268Z,0.52
2022-12-31T03:25:51.227Z,0.53
2022-12-31T03:26:51.126Z,0.52
2022-12-31T03:27:51.077Z,0.52
2022-12-31T03:28:50.970Z,0.52
2022-12-31T03:29:50.902Z,0.51
2022-12-31T03:30:50.801Z,0.52
2022-12-31T03:31:50.760Z,0.52
2022-12-31T03:32:50.590Z,0.52
2022-12-31T03:33:50.584Z,0.52
2022-12-31T03:34:50.436Z,0.52
2022-12-31T03:35:50.372Z,0.52
2022-12-31T03:36:50.255Z,0.52
2022-12-31T03:37:50.234Z,0.52
2022-12-31T03:38:52.840Z,0.52
2022-12-31T03:39:50.042Z,0.52
2022-12-31T03:40:49.919Z,0.52
2022-12-31T03:41:49.879Z,0.52
2022-12-31T03:42:49.747Z,0.52
2022-12-31T03:43:49.729Z,0.53
2022-12-31T03:44:49.613Z,0.53
2022-12-31T03:45:49.569Z,0.52
2022-12-31T03:46:49.401Z,0.53
2022-12-31T03:47:49.382Z,0.53
2022-12-31T03:48:49.258Z,0.53
2022-12-31T03:49:49.209Z,0.52
2022-12-31T03:50:49.081Z,0.52
2022-12-31T03:51:49.054Z,0.51
2022-12-31T03:52:48.915Z,0.53
2022-12-31T03:53:48.866Z,0.53
2022-12-31T03:54:48.737Z,0.52
2022-12-31T03:55:48.696Z,0.52
2022-12-31T03:56:49.594Z,0.53
2022-12-31T03:57:48.528Z,0.54
2022-12-31T03:58:48.407Z,0.53
2022-12-31T03:59:48.383Z,0.52
2022-12-31T04:00:48.333Z,0.52
2022-12-31T04:01:48.259Z,0.53
2022-12-31T04:02:48.082Z,0.52
2022-12-31T04:03:48.044Z,0.53
2022-12-31T04:04:47.931Z,0.53
2022-12-31T04:05:47.863Z,0.52
2022-12-31T04:06:47.746Z,0.53
2022-12-31T04:07:47.697Z,0.53
2022-12-31T04:08:47.595Z,0.53
2022-12-31T04:09:47.528Z,0.53
2022-12-31T04:10:47.393Z,0.52
2022-12-31T04:11:47.345Z,0.52
2022-12-31T04:12:47.242Z,0.52
2022-12-31T04:13:47.202Z,0.53
2022-12-31T04:14:47.118Z,0.52
2022-12-31T04:15:47.048Z,0.52
2022-12-31T04:16:46.939Z,0.53
2022-12-31T04:17:46.874Z,0.53
2022-12-31T04:18:46.789Z,0.52
2022-12-31T04:19:46.707Z,0.52
2022-12-31T04:20:46.587Z,0.52
2022-12-31T04:21:46.595Z,0.53
2022-12-31T04:22:46.480Z,0.52
2022-12-31T04:23:46.352Z,0.53
2022-12-31T04:24:46.246Z,0.53
2022-12-31T04:25:46.222Z,0.53
2022-12-31T04:26:46.085Z,0.53
2022-12-31T04:27:46.026Z,0.53
2022-12-31T04:28:45.904Z,0.54
2022-12-31T04:29:45.848Z,0.53
2022-12-31T04:30:45.725Z,0.53
2022-12-31T04:31:45.724Z,0.54
2022-12-31T04:32:45.555Z,0.53
2022-12-31T04:33:45.516Z,0.53
2022-12-31T04:34:45.422Z,0.54
2022-12-31T04:35:45.340Z,0.54
2022-12-31T04:36:45.220Z,0.53
2022-12-31T04:37:45.165Z,0.53
2022-12-31T04:38:45.065Z,0.53
2022-12-31T04:39:45.007Z,0.54
2022-12-31T04:40:44.861Z,0.54
2022-12-31T04:41:44.857Z,0.53
2022-12-31T04:42:44.750Z,0.54
2022-12-31T04:43:44.693Z,0.54
2022-12-31T04:44:44.578Z,0.52
2022-12-31T04:45:44.507Z,0.53
2022-12-31T04:46:44.384Z,0.54
2022-12-31T04:47:44.332Z,0.54
2022-12-31T04:48:44.249Z,0.54
2022-12-31T04:49:44.168Z,0.54
2022-12-31T04:50:44.036Z,0.53
2022-12-31T04:51:44.044Z,0.52
2022-12-31T04:52:43.949Z,0.53
2022-12-31T04:53:43.826Z,0.54
2022-12-31T04:54:43.711Z,0.54
2022-12-31T04:55:43.673Z,0.53
2022-12-31T04:56:43.561Z,0.54
2022-12-31T04:57:43.470Z,0.53
2022-12-31T04:58:43.371Z,0.53
2022-12-31T04:59:43.316Z,0.54
2022-12-31T05:00:43.214Z,0.54
2022-12-31T05:01:43.222Z,0.54
2022-12-31T05:02:43.196Z,0.54
2022-12-31T05:03:42.971Z,0.54
2022-12-31T05:04:42.856Z,0.54
2022-12-31T05:05:42.831Z,0.54
2022-12-31T05:06:42.693Z,0.53
2022-12-31T05:07:42.638Z,0.53
2022-12-31T05:08:42.528Z,0.54
2022-12-31T05:09:42.468Z,0.54
2022-12-31T05:10:42.364Z,0.53
2022-12-31T05:11:42.306Z,0.54
2022-12-31T05:12:42.231Z,0.54
2022-12-31T05:13:42.131Z,0.54
2022-12-31T05:14:42.011Z,0.54
2022-12-31T05:15:41.959Z,0.54
2022-12-31T05:16:41.841Z,0.54
2022-12-31T05:17:41.844Z,0.54
2022-12-31T05:18:41.681Z,0.54
2022-12-31T05:19:41.674Z,0.53
2022-12-31T05:20:41.532Z,0.53
2022-12-31T05:21:41.460Z,0.54
2022-12-31T05:22:41.340Z,0.53
2022-12-31T05:23:41.312Z,0.53
2022-12-31T05:24:41.172Z,0.53
2022-12-31T05:25:41.141Z,0.54
2022-12-31T05:26:41.017Z,0.54
2022-12-31T05:27:40.969Z,0.54
2022-12-31T05:28:40.847Z,0.53
2022-12-31T05:29:40.792Z,0.54
2022-12-31T05:30:40.682Z,0.54
2022-12-31T05:31:40.625Z,0.54
2022-12-31T05:32:40.545Z,0.54
2022-12-31T05:33:40.454Z,0.54
2022-12-31T05:34:40.324Z,0.54
2022-12-31T05:35:40.278Z,0.54
2022-12-31T05:36:40.132Z,0.53
2022-12-31T05:37:40.137Z,0.54
2022-12-31T05:38:39.986Z,0.55
2022-12-31T05:39:39.920Z,0.54
2022-12-31T05:40:39.832Z,0.54
2022-12-31T05:41:39.785Z,0.54
2022-12-31T05:42:39.649Z,0.55
2022-12-31T05:43:39.563Z,0.54
2022-12-31T05:44:39.460Z,0.54
2022-12-31T05:45:39.410Z,0.53
2022-12-31T05:46:39.314Z,0.55
2022-12-31T05:47:39.269Z,0.54
2022-12-31T05:48:39.159Z,0.53
2022-12-31T05:49:39.103Z,0.53
2022-12-31T05:50:38.977Z,0.54
2022-12-31T05:51:38.950Z,0.54
2022-12-31T05:52:38.910Z,0.55
2022-12-31T05:53:38.776Z,0.55
2022-12-31T05:54:38.648Z,0.54
2022-12-31T05:55:38.623Z,0.55
2022-12-31T05:56:38.488Z,0.54
2022-12-31T05:57:38.431Z,0.54
2022-12-31T05:58:38.331Z,0.54
2022-12-31T05:59:38.311Z,0.54
2022-12-31T06:00:38.165Z,0.54
2022-12-31T06:01:38.150Z,0.55
2022-12-31T06:02:38.088Z,0.54
2022-12-31T06:03:37.994Z,0.54
2022-12-31T06:04:37.854Z,0.54
2022-12-31T06:05:37.771Z,0.55
2022-12-31T06:06:37.666Z,0.54
2022-12-31T06:07:37.670Z,0.55
2022-12-31T06:08:37.511Z,0.55
2022-12-31T06:09:37.498Z,0.53
2022-12-31T06:10:37.365Z,0.54
2022-12-31T06:11:37.337Z,0.55
2022-12-31T06:12:37.225Z,0.54
2022-12-31T06:13:37.176Z,0.55
2022-12-31T06:14:42.203Z,0.54
2022-12-31T06:15:38.063Z,0.54
2022-12-31T06:16:36.907Z,0.54
2022-12-31T06:17:36.867Z,0.54
2022-12-31T06:18:36.729Z,0.55
2022-12-31T06:19:36.721Z,0.54
2022-12-31T06:20:36.575Z,0.54
2022-12-31T06:21:36.551Z,0.55
2022-12-31T06:22:36.423Z,0.54
2022-12-31T06:23:36.393Z,0.54
2022-12-31T06:24:36.275Z,0.54
2022-12-31T06:25:36.266Z,0.55
2022-12-31T06:26:36.133Z,0.55
2022-12-31T06:27:36.052Z,0.53
2022-12-31T06:28:35.926Z,0.55
2022-12-31T06:29:35.902Z,0.55
2022-12-31T06:30:35.806Z,0.55
2022-12-31T06:31:35.747Z,0.55
2022-12-31T06:32:35.610Z,0.55
2022-12-31T06:33:35.572Z,0.55
2022-12-31T06:34:35.475Z,0.55
2022-12-31T06:35:35.416Z,0.55
2022-12-31T06:36:35.298Z,0.56
2022-12-31T06:37:35.287Z,0.55
2022-12-31T06:38:35.166Z,0.55
2022-12-31T06:39:35.099Z,0.54
2022-12-31T06:40:35.000Z,0.55
2022-12-31T06:41:34.924Z,0.53
2022-12-31T06:42:34.829Z,0.55
2022-12-31T06:43:34.749Z,0.55
2022-12-31T06:44:34.659Z,0.56
2022-12-31T06:45:34.605Z,0.56
2022-12-31T06:46:34.540Z,0.55
2022-12-31T06:47:34.428Z,0.55
2022-12-31T06:48:34.310Z,0.55
2022-12-31T06:49:34.269Z,0.56
2022-12-31T06:50:34.119Z,0.57
2022-12-31T06:51:34.089Z,0.56
2022-12-31T06:52:33.973Z,0.56
2022-12-31T06:53:33.898Z,0.56
2022-12-31T06:54:33.789Z,0.57
2022-12-31T06:55:33.708Z,0.57
2022-12-31T06:56:35.018Z,0.56
2022-12-31T06:57:33.516Z,0.55
2022-12-31T06:58:33.393Z,0.56
2022-12-31T06:59:33.352Z,0.56
2022-12-31T07:00:33.222Z,0.55
2022-12-31T07:01:33.239Z,0.56
2022-12-31T07:02:40.150Z,0.55
2022-12-31T07:03:32.945Z,0.55
2022-12-31T07:04:32.883Z,0.55
2022-12-31T07:05:32.782Z,0.56
2022-12-31T07:06:32.716Z,0.55
2022-12-31T07:07:32.595Z,0.56
2022-12-31T07:08:32.506Z,0.54
2022-12-31T07:09:32.411Z,0.55
2022-12-31T07:10:32.337Z,0.56
2022-12-31T07:11:32.231Z,0.55
2022-12-31T07:12:32.123Z,0.56
2022-12-31T07:13:32.042Z,0.56
2022-12-31T07:14:31.950Z,0.55
2022-12-31T07:15:31.817Z,0.56
2022-12-31T07:16:31.771Z,0.56
2022-12-31T07:17:31.624Z,0.55
2022-12-31T07:18:31.509Z,0.56
2022-12-31T07:19:31.399Z,0.56
2022-12-31T07:20:31.323Z,0.56
2022-12-31T07:21:31.185Z,0.55
2022-12-31T07:22:31.124Z,0.55
2022-12-31T07:23:30.972Z,0.55
2022-12-31T07:24:30.926Z,0.55
2022-12-31T07:25:30.800Z,0.55
2022-12-31T07:26:30.711Z,0.56
2022-12-31T07:27:30.579Z,0.55
2022-12-31T07:28:30.519Z,0.55
2022-12-31T07:29:30.381Z,0.55
2022-12-31T07:30:30.304Z,0.56
2022-12-31T07:31:30.215Z,0.56
2022-12-31T07:32:30.120Z,0.56
2022-12-31T07:33:29.972Z,0.55
2022-12-31T07:34:29.913Z,0.55
2022-12-31T07:35:34.799Z,0.55
2022-12-31T07:36:30.764Z,0.55
2022-12-31T07:37:29.607Z,0.55
2022-12-31T07:38:29.562Z,0.55
2022-12-31T07:39:29.421Z,0.54
2022-12-31T07:40:29.364Z,0.55
2022-12-31T07:41:29.246Z,0.54
2022-12-31T07:42:29.181Z,0.54
2022-12-31T07:43:29.050Z,0.54
2022-12-31T07:44:29.007Z,0.54
2022-12-31T07:45:28.867Z,0.54
2022-12-31T07:46:28.818Z,0.54
2022-12-31T07:47:28.693Z,0.54
2022-12-31T07:48:28.642Z,0.55
2022-12-31T07:49:28.500Z,0.54
2022-12-31T07:50:28.415Z,0.54
2022-12-31T07:51:28.321Z,0.54
2022-12-31T07:52:28.267Z,0.54
2022-12-31T07:53:28.099Z,0.55
2022-12-31T07:54:28.059Z,0.53
2022-12-31T07:55:27.914Z,0.54
2022-12-31T07:56:27.836Z,0.54
2022-12-31T07:57:27.719Z,0.54
2022-12-31T07:58:27.658Z,0.54
2022-12-31T07:59:27.507Z,0.54
2022-12-31T08:00:27.449Z,0.54
2022-12-31T08:01:27.387Z,0.55
2022-12-31T08:02:27.336Z,0.54
2022-12-31T08:03:27.106Z,0.55
2022-12-31T08:04:27.047Z,0.55
2022-12-31T08:05:26.936Z,0.54
2022-12-31T08:06:26.881Z,0.55
2022-12-31T08:07:26.691Z,0.55
2022-12-31T08:08:26.645Z,0.54
2022-12-31T08:09:26.505Z,0.54
2022-12-31T08:10:26.549Z,0.54
2022-12-31T08:11:26.281Z,0.54
2022-12-31T08:12:26.207Z,0.55
2022-12-31T08:13:26.101Z,0.55
2022-12-31T08:14:26.038Z,0.55
2022-12-31T08:15:30.337Z,0.55
2022-12-31T08:16:25.945Z,0.55
2022-12-31T08:17:25.696Z,0.55
2022-12-31T08:18:25.639Z,0.55
2022-12-31T08:19:25.478Z,0.54
2022-12-31T08:20:25.441Z,0.54
2022-12-31T08:21:29.533Z,0.54
2022-12-31T08:22:26.216Z,0.54
2022-12-31T08:23:25.052Z,0.54
2022-12-31T08:24:25.018Z,0.54
2022-12-31T08:25:24.848Z,0.54
2022-12-31T08:26:24.833Z,0.54
2022-12-31T08:27:24.694Z,0.54
2022-12-31T08:28:24.610Z,0.55
2022-12-31T08:29:24.509Z,0.55
2022-12-31T08:30:24.432Z,0.54
2022-12-31T08:31:24.315Z,0.54
2022-12-31T08:32:24.234Z,0.54
2022-12-31T08:33:24.105Z,0.53
2022-12-31T08:34:24.056Z,0.54
2022-12-31T08:35:23.912Z,0.53
2022-12-31T08:36:23.872Z,0.53
2022-12-31T08:37:23.710Z,0.53
2022-12-31T08:38:23.649Z,0.53
2022-12-31T08:39:23.548Z,0.52
2022-12-31T08:40:23.497Z,0.53
2022-12-31T08:41:23.342Z,0.53
2022-12-31T08:42:23.261Z,0.53
2022-12-31T08:43:23.147Z,0.53
2022-12-31T08:44:23.091Z,0.52
2022-12-31T08:45:22.939Z,0.53
2022-12-31T08:46:22.897Z,0.53
2022-12-31T08:47:22.756Z,0.52
2022-12-31T08:48:22.715Z,0.53
2022-12-31T08:49:22.541Z,0.52
2022-12-31T08:50:22.513Z,0.52
2022-12-31T08:51:22.358Z,0.52
2022-12-31T08:52:22.329Z,0.52
2022-12-31T08:53:22.164Z,0.52
2022-12-31T08:54:22.088Z,0.52
2022-12-31T08:55:21.999Z,0.52
2022-12-31T08:56:21.930Z,0.52
2022-12-31T08:57:21.808Z,0.53
2022-12-31T08:58:21.761Z,0.52
2022-12-31T08:59:21.591Z,0.51
2022-12-31T09:00:21.571Z,0.53
2022-12-31T09:01:21.562Z,0.52
2022-12-31T09:02:21.389Z,0.53
2022-12-31T09:03:21.238Z,0.52
2022-12-31T09:04:21.201Z,0.51
2022-12-31T09:05:21.059Z,0.53
2022-12-31T09:06:21.005Z,0.52
2022-12-31T09:07:20.872Z,0.52
2022-12-31T09:08:20.832Z,0.52
2022-12-31T09:09:20.728Z,0.51
2022-12-31T09:10:20.652Z,0.51
2022-12-31T09:11:23.190Z,0.52
2022-12-31T09:12:20.456Z,0.52
2022-12-31T09:13:20.338Z,0.52
2022-12-31T09:14:20.304Z,0.52
2022-12-31T09:15:20.159Z,0.52
2022-12-31T09:16:20.132Z,0.53
2022-12-31T09:17:19.969Z,0.52
2022-12-31T09:18:19.896Z,0.53
2022-12-31T09:19:19.749Z,0.51
2022-12-31T09:20:19.713Z,0.52
2022-12-31T09:21:19.583Z,0.52
2022-12-31T09:22:19.527Z,0.52
2022-12-31T09:23:19.375Z,0.53
2022-12-31T09:24:19.311Z,0.53
2022-12-31T09:25:19.200Z,0.52
2022-12-31T09:26:19.156Z,0.52
2022-12-31T09:27:23.830Z,0.52
2022-12-31T09:28:19.947Z,0.52
2022-12-31T09:29:18.825Z,0.52
2022-12-31T09:30:18.773Z,0.52
2022-12-31T09:31:18.712Z,0.53
2022-12-31T09:32:18.579Z,0.53
2022-12-31T09:33:18.446Z,0.52
2022-12-31T09:34:18.389Z,0.53
2022-12-31T09:35:18.256Z,0.51
2022-12-31T09:36:18.224Z,0.53
2022-12-31T09:37:18.077Z,0.53
2022-12-31T09:38:18.030Z,0.53
2022-12-31T09:39:17.901Z,0.53
2022-12-31T09:40:17.825Z,0.53
2022-12-31T09:41:17.715Z,0.53
2022-12-31T09:42:17.628Z,0.51
2022-12-31T09:43:17.514Z,0.52
2022-12-31T09:44:17.479Z,0.53
2022-12-31T09:45:17.345Z,0.52
2022-12-31T09:46:17.301Z,0.50
2022-12-31T09:47:17.166Z,0.51
2022-12-31T09:48:17.111Z,0.52
2022-12-31T09:49:16.968Z,0.52
2022-12-31T09:50:16.904Z,0.51
2022-12-31T09:51:20.404Z,0.52
2022-12-31T09:52:17.751Z,0.52
2022-12-31T09:53:16.621Z,0.52
2022-12-31T09:54:16.563Z,0.52
2022-12-31T09:55:16.426Z,0.52
2022-12-31T09:56:16.387Z,0.53
2022-12-31T09:57:16.278Z,0.52
2022-12-31T09:58:16.191Z,0.51
2022-12-31T09:59:16.065Z,0.52
2022-12-31T10:00:15.991Z,0.52
2022-12-31T10:01:15.993Z,0.53
2022-12-31T10:02:15.977Z,0.53
2022-12-31T10:03:15.745Z,0.51
2022-12-31T10:04:15.617Z,0.52
2022-12-31T10:05:15.484Z,0.52
2022-12-31T10:06:15.408Z,0.53
2022-12-31T10:07:15.284Z,0.53
2022-12-31T10:08:15.205Z,0.52
2022-12-31T10:09:15.107Z,0.52
2022-12-31T10:10:15.047Z,0.53
2022-12-31T10:11:14.893Z,0.53
2022-12-31T10:12:14.865Z,0.53
2022-12-31T10:13:14.739Z,0.53
2022-12-31T10:14:14.663Z,0.53
2022-12-31T10:15:14.546Z,0.53
2022-12-31T10:16:14.456Z,0.53
2022-12-31T10:17:14.372Z,0.55
2022-12-31T10:18:14.288Z,0.53
2022-12-31T10:19:14.157Z,0.53
2022-12-31T10:20:14.104Z,0.54
2022-12-31T10:21:13.989Z,0.55
2022-12-31T10:22:13.909Z,0.54
2022-12-31T10:23:13.786Z,0.55
2022-12-31T10:24:13.704Z,0.54
2022-12-31T10:25:13.595Z,0.55
2022-12-31T10:26:13.546Z,0.55
2022-12-31T10:27:13.404Z,0.56
2022-12-31T10:28:13.348Z,0.56
2022-12-31T10:29:13.229Z,0.59
2022-12-31T10:30:13.209Z,0.62
2022-12-31T10:31:13.040Z,0.60
2022-12-31T10:32:12.951Z,0.61
2022-12-31T10:33:12.830Z,0.62
2022-12-31T10:34:12.768Z,0.60
2022-12-31T10:35:12.689Z,0.61
2022-12-31T10:36:12.621Z,0.62
2022-12-31T10:37:12.473Z,0.61
2022-12-31T10:38:12.434Z,0.62
2022-12-31T10:39:15.295Z,0.61
2022-12-31T10:40:12.246Z,0.61
2022-12-31T10:41:12.078Z,0.62
2022-12-31T10:42:12.033Z,0.62
2022-12-31T10:43:11.901Z,0.63
2022-12-31T10:44:11.852Z,0.63
2022-12-31T10:45:11.704Z,0.63
2022-12-31T10:46:11.702Z,0.63
2022-12-31T10:47:11.548Z,0.65
2022-12-31T10:48:11.439Z,0.63
2022-12-31T10:49:11.298Z,0.64
2022-12-31T10:50:11.251Z,0.64
2022-12-31T10:51:11.130Z,0.63
2022-12-31T10:52:11.054Z,0.63
2022-12-31T10:53:10.918Z,0.67
2022-12-31T10:54:10.861Z,0.68
2022-12-31T10:55:10.730Z,0.67
2022-12-31T10:56:10.652Z,0.66
2022-12-31T10:57:10.499Z,0.67
2022-12-31T10:58:10.454Z,0.67
2022-12-31T10:59:10.327Z,0.67
2022-12-31T11:00:10.291Z,0.67
2022-12-31T11:01:10.194Z,0.67
2022-12-31T11:02:10.207Z,0.67
2022-12-31T11:03:09.926Z,0.68
2022-12-31T11:04:09.839Z,0.69
2022-12-31T11:05:09.710Z,0.68
2022-12-31T11:06:09.638Z,0.67
2022-12-31T11:07:09.460Z,0.68
2022-12-31T11:08:09.407Z,0.66
2022-12-31T11:09:09.271Z,0.67
2022-12-31T11:10:09.220Z,0.68
2022-12-31T11:11:09.069Z,0.68
2022-12-31T11:12:09.009Z,0.67
2022-12-31T11:13:08.870Z,0.67
2022-12-31T11:14:08.827Z,0.65
2022-12-31T11:15:08.652Z,0.66
2022-12-31T11:16:08.674Z,0.67
2022-12-31T11:17:08.460Z,0.65
2022-12-31T11:18:08.411Z,0.65
2022-12-31T11:19:08.241Z,0.65
2022-12-31T11:20:08.174Z,0.65
2022-12-31T11:21:08.082Z,0.66
2022-12-31T11:22:08.008Z,0.64
2022-12-31T11:23:07.857Z,0.64
2022-12-31T11:24:07.809Z,0.65
2022-12-31T11:25:07.662Z,0.64
2022-12-31T11:26:07.616Z,0.64
2022-12-31T11:27:07.470Z,0.63
2022-12-31T11:28:07.382Z,0.65
2022-12-31T11:29:07.286Z,0.63
2022-12-31T11:30:07.210Z,0.63
2022-12-31T11:31:07.097Z,0.63
2022-12-31T11:32:06.991Z,0.64
2022-12-31T11:33:06.880Z,0.63
2022-12-31T11:34:06.807Z,0.64
2022-12-31T11:35:06.648Z,0.63
2022-12-31T11:36:06.572Z,0.64
2022-12-31T11:37:06.450Z,0.63
2022-12-31T11:38:06.348Z,0.63
2022-12-31T11:39:06.260Z,0.63
2022-12-31T11:40:06.155Z,0.62
2022-12-31T11:41:06.017Z,0.62
2022-12-31T11:42:05.953Z,0.63
2022-12-31T11:43:05.832Z,0.62
2022-12-31T11:44:05.737Z,0.61
2022-12-31T11:45:05.610Z,0.63
2022-12-31T11:46:05.542Z,0.62
2022-12-31T11:47:05.393Z,0.62
2022-12-31T11:48:29.553Z,0.62
2022-12-31T11:49:06.206Z,0.62
2022-12-31T11:50:05.055Z,0.62
2022-12-31T11:51:05.014Z,0.62
2022-12-31T11:52:04.876Z,0.62
2022-12-31T11:53:04.772Z,0.62
2022-12-31T11:54:04.658Z,0.62
2022-12-31T11:55:04.597Z,0.55
2022-12-31T11:56:04.439Z,0.47
2022-12-31T11:57:04.375Z,0.50
2022-12-31T11:58:04.248Z,0.50
2022-12-31T11:59:09.709Z,0.50
2022-12-31T12:00:05.122Z,0.50
2022-12-31T12:01:04.062Z,0.45
2022-12-31T12:02:03.935Z,0.43
2022-12-31T12:03:03.857Z,0.41
2022-12-31T12:04:03.796Z,0.34
2022-12-31T12:05:10.320Z,0.38
2022-12-31T12:06:04.605Z,0.37
2022-12-31T12:07:03.529Z,0.37
2022-12-31T12:08:03.467Z,0.34
2022-12-31T12:09:03.362Z,0.34
2022-12-31T12:10:03.290Z,0.34
2022-12-31T12:11:03.213Z,0.36
2022-12-31T12:12:03.167Z,0.43
2022-12-31T12:13:03.103Z,0.50
2022-12-31T12:14:03.051Z,0.51
2022-12-31T12:15:02.956Z,0.51
2022-12-31T12:16:02.976Z,0.50
2022-12-31T12:17:05.492Z,0.50
2022-12-31T12:18:02.786Z,0.53
2022-12-31T12:19:02.696Z,0.52
2022-12-31T12:20:02.669Z,0.50
2022-12-31T12:21:02.564Z,0.51
2022-12-31T12:22:02.526Z,0.52
2022-12-31T12:23:02.413Z,0.50
2022-12-31T12:24:02.360Z,0.52
2022-12-31T12:25:02.301Z,0.54
2022-12-31T12:26:02.264Z,0.54
2022-12-31T12:27:02.077Z,0.58
2022-12-31T12:28:02.005Z,0.61
2022-12-31T12:29:01.920Z,0.64
2022-12-31T12:30:01.857Z,0.64
2022-12-31T12:31:01.816Z,0.64
2022-12-31T12:32:01.668Z,0.66
2022-12-31T12:33:01.577Z,0.66
2022-12-31T12:34:01.529Z,0.69
2022-12-31T12:35:01.411Z,0.74
2022-12-31T12:36:01.347Z,0.76
2022-12-31T12:37:01.222Z,0.81
2022-12-31T12:38:01.157Z,0.81
2022-12-31T12:39:01.046Z,0.86
2022-12-31T12:40:01.155Z,0.90
2022-12-31T12:41:00.845Z,0.93
2022-12-31T12:42:00.765Z,0.95
2022-12-31T12:43:00.680Z,1.01
2022-12-31T12:44:00.599Z,1.09
2022-12-31T12:45:00.469Z,1.08
2022-12-31T12:46:00.421Z,1.17
2022-12-31T12:47:00.368Z,1.24
2022-12-31T12:48:00.351Z,1.44
2022-12-31T12:49:00.221Z,1.42
2022-12-31T12:50:00.126Z,1.46
2022-12-31T12:50:59.968Z,1.51
2022-12-31T12:51:59.845Z,1.49
2022-12-31T12:52:59.941Z,1.51
2022-12-31T12:53:59.667Z,1.61
2022-12-31T12:54:59.541Z,1.62
2022-12-31T12:55:59.486Z,1.68
2022-12-31T12:56:59.431Z,1.70
2022-12-31T12:57:59.277Z,1.73
2022-12-31T12:58:59.171Z,1.76
2022-12-31T12:59:59.066Z,1.79
2022-12-31T13:00:59.033Z,1.77
2022-12-31T13:01:59.018Z,1.82
2022-12-31T13:03:05.784Z,1.85
2022-12-31T13:04:59.700Z,1.86
2022-12-31T13:05:58.477Z,1.86
2022-12-31T13:06:58.384Z,1.89
2022-12-31T13:07:58.267Z,1.93
2022-12-31T13:08:58.224Z,1.98
2022-12-31T13:09:58.071Z,2.03
2022-12-31T13:10:58.021Z,2.04
2022-12-31T13:12:02.282Z,2.02
2022-12-31T13:13:23.444Z,2.03
2022-12-31T13:13:58.668Z,2.03
2022-12-31T13:14:57.631Z,2.05
2022-12-31T13:15:57.551Z,2.05
2022-12-31T13:16:57.381Z,2.10
2022-12-31T13:18:01.479Z,2.15
2022-12-31T13:18:57.220Z,2.03
2022-12-31T13:19:57.079Z,2.04
2022-12-31T13:20:56.999Z,2.06
2022-12-31T13:21:56.866Z,2.11
2022-12-31T13:22:56.813Z,2.14
2022-12-31T13:23:56.681Z,2.19
2022-12-31T13:24:56.631Z,2.20
2022-12-31T13:25:56.515Z,2.23
2022-12-31T13:26:56.473Z,2.20
2022-12-31T13:27:56.311Z,2.12
2022-12-31T13:28:56.242Z,2.21
2022-12-31T13:29:56.126Z,2.23
2022-12-31T13:30:58.343Z,2.20
2022-12-31T13:31:56.943Z,2.21
2022-12-31T13:32:55.844Z,2.20
2022-12-31T13:33:55.794Z,2.22
2022-12-31T13:34:55.703Z,2.21
2022-12-31T13:35:55.622Z,2.25
2022-12-31T13:36:55.507Z,2.26
2022-12-31T13:38:00.203Z,2.26
2022-12-31T13:38:56.333Z,2.26
2022-12-31T13:39:55.333Z,2.26
2022-12-31T13:40:55.108Z,2.27
2022-12-31T13:41:55.046Z,2.29
2022-12-31T13:42:54.945Z,2.32
2022-12-31T13:43:54.937Z,2.40
2022-12-31T13:44:54.764Z,2.62
2022-12-31T13:45:54.673Z,2.79
2022-12-31T13:46:54.539Z,2.79
2022-12-31T13:47:54.504Z,2.81
2022-12-31T13:48:54.386Z,2.90
2022-12-31T13:49:54.260Z,2.88
2022-12-31T13:50:54.183Z,2.87
2022-12-31T13:51:54.038Z,2.90
2022-12-31T13:52:53.994Z,2.91
2022-12-31T13:53:53.882Z,2.92
2022-12-31T13:54:53.831Z,2.88
2022-12-31T13:55:56.971Z,2.82
2022-12-31T13:56:53.649Z,2.88
2022-12-31T13:57:53.522Z,2.90
2022-12-31T13:58:53.486Z,2.78
2022-12-31T13:59:53.327Z,2.78
2022-12-31T14:00:53.295Z,2.87
2022-12-31T14:01:53.368Z,2.84
2022-12-31T14:02:53.212Z,2.79
2022-12-31T14:03:52.969Z,2.80
2022-12-31T14:04:52.926Z,2.75
2022-12-31T14:05:52.857Z,2.76
2022-12-31T14:06:52.734Z,2.84
2022-12-31T14:07:52.609Z,2.89
2022-12-31T14:08:52.590Z,2.92
2022-12-31T14:09:52.468Z,2.87
2022-12-31T14:10:52.431Z,2.87
2022-12-31T14:11:52.280Z,3.05
2022-12-31T14:12:52.240Z,3.01